Time;durP1;ratioP1;P1;durP2;ratioP2;P2;SDS_P1;SDS_P2;PMS_P1;PMS_P2;Temp;Humidity;BMP_temperature;BMP_pressure;BME280_temperature;BME280_humidity;BME280_pressure;Samples;Min_cycle;Max_cycle;Signal;HPM_P1;HPM_P2
2023/08/28 00:02:36;;;;;;;;;;;;;;;-145.06;0.00;60892.56;6010384;23;19907;-92
2023/08/28 00:05:23;;;;;;;;;;;;;;;-145.06;0.00;60892.56;6010431;23;20340;-92
2023/08/28 00:08:05;;;;;;;;;;;;;;;-145.06;0.00;60892.56;6010867;23;20230;-92
2023/08/28 00:10:47;;;;;;;;;;;;;;;-145.06;0.00;60892.56;6010792;23;19935;-93
2023/08/28 00:13:26;;;;;;;;;;;;;;;-145.06;0.00;60892.56;6010343;23;19907;-92
2023/08/28 00:16:08;;;;;;;;;;;;;;;-145.06;0.00;60892.56;6010553;23;19934;-92
2023/08/28 00:18:49;;;;;;;;;;;;;;;-145.06;0.00;60892.56;6010363;23;19908;-92
2023/08/28 00:21:32;;;;;;;;;;;;;;;-145.06;0.00;60892.56;6010360;23;19911;-92
2023/08/28 00:24:13;;;;;;;;;;;;;;;-145.06;0.00;60892.56;6010344;23;19974;-93
2023/08/28 00:26:55;;;;;;;;;;;;;;;-145.06;0.00;60892.56;6010968;23;19908;-94
2023/08/28 00:29:35;;;;;;;;;;;;;;;-145.06;0.00;60892.56;6010557;23;20474;-93
2023/08/28 00:32:14;;;;;;;;;;;;;;;-145.06;0.00;60892.56;6011049;23;20283;-92
2023/08/28 00:34:56;;;;;;;;;;;;;;;-145.06;0.00;60892.56;6010186;23;19982;-91
2023/08/28 00:37:35;;;;;;;;;;;;;;;-145.06;0.00;60892.56;6010456;23;19907;-92
2023/08/28 00:40:21;;;;;;;;;;;;;;;-145.06;0.00;60892.56;6010500;22;20207;-93
2023/08/28 00:43:03;;;;;;;;;;;;;;;-145.06;0.00;60892.56;6010012;23;19907;-94
2023/08/28 00:45:43;;;;;;;;;;;;;;;-145.06;0.00;60892.56;6010447;23;19907;-91
2023/08/28 00:48:22;;;;;;;;;;;;;;;14.55;0.00;60892.56;6010737;23;20369;-93
2023/08/28 00:51:11;;;;;;;;;;;;;;;14.53;0.00;60892.56;6010559;23;19908;-93
2023/08/28 00:53:50;;;;;;;;;;;;;;;14.50;0.00;60892.56;6010223;23;19912;-92
2023/08/28 00:56:37;;;;;;;;;;;;;;;14.48;0.00;60892.56;6010601;23;19907;-93
2023/08/28 00:59:19;;;;;;;;;;;;;;;14.46;0.00;60892.56;6010353;23;20211;-93
2023/08/28 01:01:58;;;;;;;;;;;;;;;14.43;0.00;60892.56;6010295;23;19908;-91
2023/08/28 01:04:42;;;;;;;;;;;;;;;14.42;0.00;60892.56;6010395;23;19907;-93
2023/08/28 01:07:40;;;;;;;;;;;;;;;14.40;0.00;60892.56;6010388;23;20199;-93
2023/08/28 01:10:41;;;;;;;;;;;;;;;14.38;0.00;60892.56;6011357;23;19911;-93
2023/08/28 01:13:39;;;;;;;;;;;;;;;14.36;0.00;60892.56;6012374;23;19908;-92
2023/08/28 01:19:40;;;;;;;;;;;;;;;14.33;0.00;60892.56;6044582;23;19912;-93
2023/08/28 01:22:27;;;;;;;;;;;;;;;14.33;0.00;60892.56;6011226;23;19935;-92
2023/08/28 01:25:09;;;;;;;;;;;;;;;14.32;0.00;60892.56;6012229;23;20222;-93
2023/08/28 01:28:02;;;;;;;;;;;;;;;;;;;;;
2023/08/28 01:30:51;;;;;;;;;;;;;;;;;;;;;
2023/08/28 01:33:36;;;;;;;;;;;;;;;14.29;0.00;60892.56;6044177;23;19912;-92
2023/08/28 01:36:34;;;;;;;;;;;;;;;14.28;0.00;60892.56;6012093;23;19908;-93
2023/08/28 01:39:45;;;;;;;;;;;;;;;14.27;0.00;60892.56;6011642;23;19916;-94
2023/08/28 01:42:33;;;;;;;;;;;;;;;14.26;0.00;60892.56;6011922;23;19908;-92
2023/08/28 01:45:15;;;;;;;;;;;;;;;-145.06;0.00;60892.56;6012064;23;19907;-92
2023/08/28 01:47:58;;;;;;;;;;;;;;;-145.06;0.00;60892.56;6011838;23;19907;-93
2023/08/28 01:51:05;;;;;;;;;;;;;;;;;;;;;
2023/08/28 01:53:47;;;;;;;;;;;;;;;-145.06;0.00;60892.56;6044748;23;19908;-93
2023/08/28 01:56:44;;;;;;;;;;;;;;;-145.06;0.00;60892.56;6011773;23;19955;-94
2023/08/28 01:59:26;;;;;;;;;;;;;;;-145.06;0.00;60892.56;6011713;23;19947;-93
2023/08/28 02:02:13;;;;;;;;;;;;;;;-145.06;0.00;60892.56;6011578;23;20214;-94
2023/08/28 02:05:09;;;;;;;;;;;;;;;-145.06;0.00;60892.56;6011669;23;19907;-93
2023/08/28 02:07:48;;;;;;;;;;;;;;;-145.06;0.00;60892.56;6011957;23;19986;-93
2023/08/28 02:10:43;;;;;;;;;;;;;;;-145.06;0.00;60892.56;6011256;23;19931;-93
2023/08/28 02:13:32;;;;;;;;;;;;;;;-145.06;0.00;60892.56;6011859;23;20337;-93
2023/08/28 02:16:38;;;;;;;;;;;;;;;-145.06;0.00;60892.56;6011639;23;19908;-93
2023/08/28 02:19:35;;;;;;;;;;;;;;;;;;;;;
2023/08/28 02:22:39;;;;;;;;;;;;;;;-145.06;0.00;60892.56;6044730;23;19907;-93
2023/08/28 02:25:34;;;;;;;;;;;;;;;-145.06;0.00;60892.56;6011239;23;19907;-93
2023/08/28 02:28:31;;;;;;;;;;;;;;;-145.06;0.00;60892.56;6011479;23;19908;-94
2023/08/28 02:31:17;;;;;;;;;;;;;;;-145.06;0.00;60892.56;6011689;23;19911;-92
2023/08/28 02:34:17;;;;;;;;;;;;;;;-145.06;0.00;60892.56;6011085;23;20223;-93
2023/08/28 02:37:02;;;;;;;;;;;;;;;-145.06;0.00;60892.56;6011409;23;20214;-95
2023/08/28 02:39:43;;;;;;;;;;;;;;;-145.06;0.00;60892.56;6010757;22;19912;-93
2023/08/28 02:42:41;;;;;;;;;;;;;;;;;;;;;
2023/08/28 02:45:54;;;;;;;;;;;;;;;;;;;;;
2023/08/28 02:55:26;;;;;;;;;;;;;;;-145.06;0.00;60892.56;6019528;23;19912;-93
2023/08/28 02:58:19;;;;;;;;;;;;;;;-145.06;0.00;60892.56;6011456;23;19907;-92
2023/08/28 03:01:19;;;;;;;;;;;;;;;-145.06;0.00;60892.56;6010430;23;19911;-93
2023/08/28 03:04:34;;;;;;;;;;;;;;;;;;;;;
2023/08/28 03:07:26;;;;;;;;;;;;;;;-145.06;0.00;60892.56;6043764;23;19982;-93
2023/08/28 03:10:35;;;;;;;;;;;;;;;;;;;;;
2023/08/28 03:13:27;;;;;;;;;;;;;;;-145.06;0.00;60892.56;6014855;23;19908;-94
2023/08/28 03:19:57;;;;;;;;;;;;;;;-145.06;0.00;60892.56;6042780;23;19911;-93
2023/08/28 03:32:10;;;;;;;;;;;;;;;;;;;;;
2023/08/28 03:35:05;;;;;;;;;;;;;;;-145.06;0.00;60892.56;6043317;23;19908;-94
2023/08/28 03:41:20;;;;;;;;;;;;;;;-145.06;0.00;60892.56;6046846;22;19911;-93
2023/08/28 03:44:31;;;;;;;;;;;;;;;-145.06;0.00;60892.56;6014005;23;19908;-92
2023/08/28 03:47:33;;;;;;;;;;;;;;;-145.06;0.00;60892.56;6014048;23;19986;-93
2023/08/28 03:50:32;;;;;;;;;;;;;;;;;;;;;
2023/08/28 03:54:01;;;;;;;;;;;;;;;;;;;;;
2023/08/28 03:56:52;;;;;;;;;;;;;;;-145.06;0.00;60892.56;5959015;23;20387;-93
2023/08/28 04:03:18;;;;;;;;;;;;;;;;;;;;;
2023/08/28 05:12:35;;;;;;;;;;;;;;;-145.06;0.00;60892.56;6035281;22;19950;-91
2023/08/28 05:18:59;;;;;;;;;;;;;;;-145.06;0.00;60892.56;5948506;22;20329;-91
2023/08/28 05:28:44;;;;;;;;;;;;;;;;;;;;;
2023/08/28 05:31:48;;;;;;;;;;;;;;;;;;;;;
2023/08/28 05:34:57;;;;;;;;;;;;;;;;;;;;;
2023/08/28 05:38:07;;;;;;;;;;;;;;;;;;;;;
2023/08/28 05:45:03;;;;;;;;;;;;;;;;;;;;;
2023/08/28 05:51:30;;;;;;;;;;;;;;;-145.06;0.00;60892.56;5866418;23;20320;-91
2023/08/28 05:54:24;;;;;;;;;;;;;;;-145.06;0.00;60892.56;5894736;23;19909;-91
2023/08/28 05:57:03;;;;;;;;;;;;;;;-145.06;0.00;60892.56;5895466;23;19909;-91
2023/08/28 06:00:05;;;;;;;;;;;;;;;14.58;0.00;60892.56;5907888;22;19917;-92
2023/08/28 10:07:20;;;;;;;;;;;;;;;;;;;;;
2023/08/28 11:26:08;;;;;;;;;;;;;;;;;;;;;
2023/08/28 11:32:39;;;;;;;;;;;;;;;;;;;;;
2023/08/28 11:35:30;;;;;;;;;;;;;;;-145.06;0.00;60892.56;5911979;23;19909;-95
2023/08/28 11:38:14;;;;;;;;;;;;;;;-145.06;0.00;60892.56;6010275;23;19908;-95
2023/08/28 11:44:11;;;;;;;;;;;;;;;-145.06;0.00;60892.56;6019174;23;20310;-95
2023/08/28 11:46:50;;;;;;;;;;;;;;;-145.06;0.00;60892.56;6010343;23;19939;-93
2023/08/28 11:56:21;;;;;;;;;;;;;;;-145.06;0.00;60892.56;5998235;23;19908;-94
2023/08/28 11:59:15;;;;;;;;;;;;;;;-145.06;0.00;60892.56;6013316;23;19907;-94
2023/08/28 12:02:08;;;;;;;;;;;;;;;-145.06;0.00;60892.56;6046312;22;19907;-95
2023/08/28 12:04:55;;;;;;;;;;;;;;;-145.06;0.00;60892.56;6013114;23;19907;-94
2023/08/28 12:08:01;;;;;;;;;;;;;;;;;;;;;
2023/08/28 12:10:50;;;;;;;;;;;;;;;-145.06;0.00;60892.56;6045771;22;19907;-93
2023/08/28 12:14:07;;;;;;;;;;;;;;;-145.06;0.00;60892.56;6011789;23;20073;-95
2023/08/28 12:17:06;;;;;;;;;;;;;;;-145.06;0.00;60892.56;6014182;23;19907;-95
2023/08/28 12:22:54;;;;;;;;;;;;;;;-145.06;0.00;60892.56;6018155;23;19908;-94
2023/08/28 12:26:05;;;;;;;;;;;;;;;;;;;;;
2023/08/28 12:51:58;;;;;;;;;;;;;;;-145.06;0.00;60892.56;6043529;22;19907;-94
2023/08/28 12:54:43;;;;;;;;;;;;;;;-145.06;0.00;60892.56;6032604;23;19978;-94
2023/08/28 12:57:22;;;;;;;;;;;;;;;-145.06;0.00;60892.56;6030910;23;19912;-94
2023/08/28 13:00:01;;;;;;;;;;;;;;;-145.06;0.00;60892.56;6031476;22;19916;-93
2023/08/28 13:02:40;;;;;;;;;;;;;;;-145.06;0.00;60892.56;6031223;23;19907;-93
2023/08/28 13:05:19;;;;;;;;;;;;;;;-145.06;0.00;60892.56;6032673;23;19907;-93
2023/08/28 13:07:58;;;;;;;;;;;;;;;-145.06;0.00;60892.56;6033437;23;20282;-94
2023/08/28 13:10:38;;;;;;;;;;;;;;;-145.06;0.00;60892.56;6032480;22;19907;-93
2023/08/28 13:13:16;;;;;;;;;;;;;;;-145.06;0.00;60892.56;6033250;23;19907;-94
2023/08/28 13:15:56;;;;;;;;;;;;;;;-145.06;0.00;60892.56;6032637;23;19908;-94
2023/08/28 13:18:35;;;;;;;;;;;;;;;-145.06;0.00;60892.56;6032931;23;19923;-94
2023/08/28 13:21:14;;;;;;;;;;;;;;;-145.06;0.00;60892.56;6032889;22;19934;-93
2023/08/28 13:24:03;;;;;;;;;;;;;;;-145.06;0.00;60892.56;6032888;23;19912;-94
2023/08/28 13:26:42;;;;;;;;;;;;;;;-145.06;0.00;60892.56;6011660;23;19911;-94
2023/08/28 13:29:21;;;;;;;;;;;;;;;-145.06;0.00;60892.56;6011330;23;19908;-93
2023/08/28 13:32:00;;;;;;;;;;;;;;;-145.06;0.00;60892.56;6011164;23;19907;-93
2023/08/28 13:34:39;;;;;;;;;;;;;;;-145.06;0.00;60892.56;6012047;23;19907;-93
2023/08/28 13:37:18;;;;;;;;;;;;;;;-145.06;0.00;60892.56;6011042;23;19907;-94
2023/08/28 13:39:57;;;;;;;;;;;;;;;-145.06;0.00;60892.56;6011409;22;19912;-93
2023/08/28 13:42:36;;;;;;;;;;;;;;;-145.06;0.00;60892.56;6011723;23;19908;-94
2023/08/28 13:45:15;;;;;;;;;;;;;;;-145.06;0.00;60892.56;6010987;23;20011;-94
2023/08/28 13:47:54;;;;;;;;;;;;;;;-145.06;0.00;60892.56;6011218;23;19978;-94
2023/08/28 13:50:33;;;;;;;;;;;;;;;-145.06;0.00;60892.56;6010263;23;19908;-94
2023/08/28 13:53:12;;;;;;;;;;;;;;;-145.06;0.00;60892.56;6011254;23;20215;-93
2023/08/28 13:55:54;;;;;;;;;;;;;;;-145.06;0.00;60892.56;6011650;23;20354;-93
2023/08/28 13:58:33;;;;;;;;;;;;;;;-145.06;0.00;60892.56;6010808;23;19908;-93
2023/08/28 14:01:12;;;;;;;;;;;;;;;-145.06;0.00;60892.56;6010940;23;19947;-94
2023/08/28 14:03:51;;;;;;;;;;;;;;;-145.06;0.00;60892.56;6010470;23;19911;-94
2023/08/28 14:06:30;;;;;;;;;;;;;;;-145.06;0.00;60892.56;6010401;23;19908;-93
2023/08/28 14:09:09;;;;;;;;;;;;;;;-145.06;0.00;60892.56;6010029;23;19907;-93
2023/08/28 14:11:48;;;;;;;;;;;;;;;-145.06;0.00;60892.56;6009358;23;19908;-92
2023/08/28 14:14:51;;;;;;;;;;;;;;;-145.06;0.00;60892.56;6013484;23;19927;-93
2023/08/28 14:20:51;;;;;;;;;;;;;;;-145.06;0.00;60892.56;6051043;22;19919;-92
2023/08/28 14:23:38;;;;;;;;;;;;;;;-145.06;0.00;60892.56;6065151;22;19911;-92
2023/08/28 15:09:10;;;;;;;;;;;;;;;-145.06;0.00;60892.56;5997657;22;19927;-92
2023/08/28 15:15:07;;;;;;;;;;;;;;;-145.06;0.00;60892.56;6023589;22;20317;-92
2023/08/28 15:18:17;;;;;;;;;;;;;;;-145.06;0.00;60892.56;6039179;22;19982;-93
2023/08/28 15:20:48;;;;;;;;;;;;;;;-145.06;0.00;60892.56;6040459;22;19923;-92
2023/08/28 15:26:52;;;;;;;;;;;;;;;-145.06;0.00;60892.56;6043724;23;19908;-95
2023/08/28 15:34:54;;;;;;;;;;;;;;;-145.06;0.00;60892.56;6016937;22;19927;-92
2023/08/28 15:37:44;;;;;;;;;;;;;;;-145.06;0.00;60892.56;6061909;22;19911;-92
2023/08/28 15:40:46;;;;;;;;;;;;;;;-145.06;0.00;60892.56;6062431;22;20314;-93
2023/08/28 15:46:53;;;;;;;;;;;;;;;-145.06;0.00;60892.56;6073440;22;19907;-96
2023/08/28 17:04:42;;;;;;;;;;;;;;;-145.06;0.00;60892.56;6012182;22;19911;-93
2023/08/28 17:07:21;;;;;;;;;;;;;;;-145.06;0.00;60892.56;6077860;22;19911;-92
2023/08/28 17:10:02;;;;;;;;;;;;;;;-145.06;0.00;60892.56;6066334;22;19907;-92
2023/08/28 17:12:42;;;;;;;;;;;;;;;-145.06;0.00;60892.56;6066151;22;19907;-90
2023/08/28 17:15:22;;;;;;;;;;;;;;;-145.06;0.00;60892.56;6065888;22;19978;-93
2023/08/28 17:18:01;;;;;;;;;;;;;;;-145.06;0.00;60892.56;6065971;22;19907;-93
2023/08/28 17:20:40;;;;;;;;;;;;;;;-145.06;0.00;60892.56;6065944;22;19911;-92
2023/08/28 17:23:19;;;;;;;;;;;;;;;-145.06;0.00;60892.56;6067524;22;20314;-91
2023/08/28 17:25:58;;;;;;;;;;;;;;;-145.06;0.00;60892.56;6065471;22;19931;-92
2023/08/28 17:28:37;;;;;;;;;;;;;;;-145.06;0.00;60892.56;6065948;22;19978;-91
2023/08/28 17:31:17;;;;;;;;;;;;;;;-145.06;0.00;60892.56;6065834;22;19907;-93
2023/08/28 17:33:56;;;;;;;;;;;;;;;-145.06;0.00;60892.56;6065683;22;19907;-92
2023/08/28 17:36:35;;;;;;;;;;;;;;;-145.06;0.00;60892.56;6065775;22;19911;-92
2023/08/28 17:39:16;;;;;;;;;;;;;;;-145.06;0.00;60892.56;6065257;22;20334;-92
2023/08/28 17:41:55;;;;;;;;;;;;;;;-145.06;0.00;60892.56;6066413;22;19915;-93
2023/08/28 17:44:34;;;;;;;;;;;;;;;-145.06;0.00;60892.56;6065215;22;19907;-93
2023/08/28 17:47:14;;;;;;;;;;;;;;;-145.06;0.00;60892.56;6068043;22;19907;-92
2023/08/28 17:49:55;;;;;;;;;;;;;;;-145.06;0.00;60892.56;6065957;22;19907;-92
2023/08/28 17:52:37;;;;;;;;;;;;;;;-145.06;0.00;60892.56;6065211;22;19903;-92
2023/08/28 17:55:16;;;;;;;;;;;;;;;-145.06;0.00;60892.56;6065571;22;19908;-92
2023/08/28 17:57:58;;;;;;;;;;;;;;;-145.06;0.00;60892.56;6066032;22;20231;-93
2023/08/28 18:00:48;;;;;;;;;;;;;;;-145.06;0.00;60892.56;6065050;22;19982;-93
2023/08/28 18:03:27;;;;;;;;;;;;;;;-145.06;0.00;60892.56;6065987;22;19907;-90
2023/08/28 18:06:06;;;;;;;;;;;;;;;-145.06;0.00;60892.56;6043902;22;19915;-92
2023/08/28 18:08:45;;;;;;;;;;;;;;;-145.06;0.00;60892.56;6065236;22;20357;-92
2023/08/28 18:11:28;;;;;;;;;;;;;;;-145.06;0.00;60892.56;6065581;22;19912;-92
2023/08/28 18:14:07;;;;;;;;;;;;;;;-145.06;0.00;60892.56;6065231;22;19907;-92
2023/08/28 18:16:46;;;;;;;;;;;;;;;-145.06;0.00;60892.56;6065078;22;19907;-92
2023/08/28 18:19:25;;;;;;;;;;;;;;;-145.06;0.00;60892.56;6064969;22;19915;-92
2023/08/28 18:22:04;;;;;;;;;;;;;;;-145.06;0.00;60892.56;6065592;22;19911;-93
2023/08/28 18:24:43;;;;;;;;;;;;;;;-145.06;0.00;60892.56;6064405;22;19907;-91
2023/08/28 18:27:22;;;;;;;;;;;;;;;-145.06;0.00;60892.56;6065035;22;19907;-91
2023/08/28 18:30:02;;;;;;;;;;;;;;;-145.06;0.00;60892.56;6065774;22;21597;-92
2023/08/28 18:32:41;;;;;;;;;;;;;;;-145.06;0.00;60892.56;6065109;22;20322;-91
2023/08/28 18:35:20;;;;;;;;;;;;;;;-145.06;0.00;60892.56;6065048;22;19907;-92
2023/08/28 18:37:59;;;;;;;;;;;;;;;-145.06;0.00;60892.56;6065603;22;19907;-92
2023/08/28 18:40:39;;;;;;;;;;;;;;;-145.06;0.00;60892.56;6064617;22;19911;-93
2023/08/28 18:43:18;;;;;;;;;;;;;;;-145.06;0.00;60892.56;6065374;22;19951;-92
2023/08/28 18:45:58;;;;;;;;;;;;;;;-145.06;0.00;60892.56;6064828;22;19907;-91
2023/08/28 18:48:36;;;;;;;;;;;;;;;-145.06;0.00;60892.56;6064997;22;19907;-91
2023/08/28 18:51:15;;;;;;;;;;;;;;;-145.06;0.00;60892.56;6064472;22;19987;-92
2023/08/28 18:53:54;;;;;;;;;;;;;;;-145.06;0.00;60892.56;6064940;22;19907;-92
2023/08/28 18:56:36;;;;;;;;;;;;;;;-145.06;0.00;60892.56;6065639;22;19911;-92
2023/08/28 18:59:15;;;;;;;;;;;;;;;-145.06;0.00;60892.56;6065063;22;19911;-92
2023/08/28 19:01:54;;;;;;;;;;;;;;;-145.06;0.00;60892.56;6064951;22;19911;-92
2023/08/28 19:04:33;;;;;;;;;;;;;;;-145.06;0.00;60892.56;6065641;22;19907;-91
2023/08/28 19:07:12;;;;;;;;;;;;;;;-145.06;0.00;60892.56;6043389;22;20341;-91
2023/08/28 19:09:51;;;;;;;;;;;;;;;-145.06;0.00;60892.56;6043092;22;19907;-91
2023/08/28 19:12:30;;;;;;;;;;;;;;;-145.06;0.00;60892.56;6043158;22;19904;-92
2023/08/28 19:15:11;;;;;;;;;;;;;;;-145.06;0.00;60892.56;6043012;22;19907;-92
2023/08/28 19:17:50;;;;;;;;;;;;;;;-145.06;0.00;60892.56;6043300;22;19933;-91
2023/08/28 19:20:29;;;;;;;;;;;;;;;-145.06;0.00;60892.56;6042867;22;19911;-91
2023/08/28 19:23:08;;;;;;;;;;;;;;;-145.06;0.00;60892.56;6043215;22;20466;-91
2023/08/28 19:25:47;;;;;;;;;;;;;;;-145.06;0.00;60892.56;6043084;22;19907;-91
2023/08/28 19:28:27;;;;;;;;;;;;;;;-145.06;0.00;60892.56;6041707;22;19911;-92
2023/08/28 19:31:05;;;;;;;;;;;;;;;-145.06;0.00;60892.56;6043242;22;19911;-92
2023/08/28 19:33:47;;;;;;;;;;;;;;;-145.06;0.00;60892.56;6043733;22;19939;-91
2023/08/28 19:36:26;;;;;;;;;;;;;;;-145.06;0.00;60892.56;6042641;22;19907;-93
2023/08/28 19:39:06;;;;;;;;;;;;;;;-145.06;0.00;60892.56;6043149;22;19990;-92
2023/08/28 19:41:45;;;;;;;;;;;;;;;-145.06;0.00;60892.56;6042737;22;19941;-92
2023/08/28 19:44:24;;;;;;;;;;;;;;;-145.06;0.00;60892.56;6042137;22;20218;-92
2023/08/28 19:47:03;;;;;;;;;;;;;;;-145.06;0.00;60892.56;6043190;22;19907;-93
2023/08/28 19:49:42;;;;;;;;;;;;;;;-145.06;0.00;60892.56;6043326;22;19911;-92
2023/08/28 19:52:21;;;;;;;;;;;;;;;-145.06;0.00;60892.56;6042726;22;19903;-92
2023/08/28 19:55:00;;;;;;;;;;;;;;;-145.06;0.00;60892.56;6043225;22;19911;-92
2023/08/28 19:57:39;;;;;;;;;;;;;;;-145.06;0.00;60892.56;6042919;22;19907;-93
2023/08/28 20:00:18;;;;;;;;;;;;;;;-145.06;0.00;60892.56;6043574;22;19911;-92
2023/08/28 20:02:57;;;;;;;;;;;;;;;-145.06;0.00;60892.56;6075983;22;20238;-92
2023/08/28 20:05:37;;;;;;;;;;;;;;;-145.06;0.00;60892.56;6050629;22;19911;-91
2023/08/28 20:08:17;;;;;;;;;;;;;;;-145.06;0.00;60892.56;6064306;22;19908;-91
2023/08/28 20:10:56;;;;;;;;;;;;;;;-145.06;0.00;60892.56;6065163;22;19908;-92
2023/08/28 20:13:35;;;;;;;;;;;;;;;17.99;0.00;60892.56;6064558;22;20364;-93
2023/08/28 20:16:14;;;;;;;;;;;;;;;-145.06;0.00;60892.56;6064758;22;19927;-92
2023/08/28 20:18:53;;;;;;;;;;;;;;;-145.06;0.00;60892.56;6076178;22;19982;-92
2023/08/28 20:21:32;;;;;;;;;;;;;;;-145.06;0.00;60892.56;6064537;22;19911;-91
2023/08/28 20:24:11;;;;;;;;;;;;;;;-145.06;0.00;60892.56;6064460;22;20322;-95
2023/08/28 20:26:51;;;;;;;;;;;;;;;-145.06;0.00;60892.56;6064854;22;19908;-90
2023/08/28 20:29:31;;;;;;;;;;;;;;;-145.06;0.00;60892.56;6065586;22;19908;-92
2023/08/28 20:32:11;;;;;;;;;;;;;;;-145.06;0.00;60892.56;6064926;22;19907;-92
2023/08/28 20:34:50;;;;;;;;;;;;;;;-145.06;0.00;60892.56;6065326;22;19907;-92
2023/08/28 20:37:29;;;;;;;;;;;;;;;-145.06;0.00;60892.56;6064853;22;19908;-91
2023/08/28 20:40:11;;;;;;;;;;;;;;;-145.06;0.00;60892.56;6065015;22;19912;-91
2023/08/28 20:42:53;;;;;;;;;;;;;;;-145.06;0.00;60892.56;6064915;22;19908;-91
2023/08/28 20:45:34;;;;;;;;;;;;;;;-145.06;0.00;60892.56;6064460;22;20321;-92
2023/08/28 20:48:16;;;;;;;;;;;;;;;-145.06;0.00;60892.56;6064844;22;19907;-94
2023/08/28 20:50:58;;;;;;;;;;;;;;;-145.06;0.00;60892.56;6064654;22;20217;-92
2023/08/28 20:53:37;;;;;;;;;;;;;;;-145.06;0.00;60892.56;6064301;22;19907;-91
2023/08/28 20:56:16;;;;;;;;;;;;;;;-145.06;0.00;60892.56;6063614;22;19907;-91
2023/08/28 20:58:55;;;;;;;;;;;;;;;-145.06;0.00;60892.56;6065153;22;20258;-92
2023/08/28 21:01:35;;;;;;;;;;;;;;;-145.06;0.00;60892.56;6063653;22;20154;-92
2023/08/28 21:04:24;;;;;;;;;;;;;;;;;;;;;
2023/08/28 21:07:03;;;;;;;;;;;;;;;-145.06;0.00;60892.56;6075210;22;19911;-91
2023/08/28 21:12:35;;;;;;;;;;;;;;;-145.06;0.00;60892.56;6047768;22;19919;-91
2023/08/28 21:15:14;;;;;;;;;;;;;;;-145.06;0.00;60892.56;6042935;22;19907;-90
2023/08/28 21:17:53;;;;;;;;;;;;;;;-145.06;0.00;60892.56;6042745;22;19907;-92
2023/08/28 21:20:42;;;;;;;;;;;;;;;;;;;;;
2023/08/28 21:23:50;;;;;;;;;;;;;;;-145.06;0.00;60892.56;6075642;22;19907;-92
2023/08/28 21:26:30;;;;;;;;;;;;;;;-145.06;0.00;60892.56;6043318;22;19970;-92
2023/08/28 21:29:11;;;;;;;;;;;;;;;-145.06;0.00;60892.56;6044864;22;19908;-92
2023/08/28 21:31:50;;;;;;;;;;;;;;;-145.06;0.00;60892.56;6044129;22;19907;-91
2023/08/28 21:34:37;;;;;;;;;;;;;;;-145.06;0.00;60892.56;6043922;22;19927;-92
2023/08/28 21:37:23;;;;;;;;;;;;;;;-145.06;0.00;60892.56;6044784;22;19907;-92
2023/08/28 21:40:05;;;;;;;;;;;;;;;-145.06;0.00;60892.56;6043518;22;19911;-92
2023/08/28 21:42:47;;;;;;;;;;;;;;;-145.06;0.00;60892.56;6044325;22;19907;-92
2023/08/28 21:45:38;;;;;;;;;;;;;;;;;;;;;
2023/08/28 21:48:20;;;;;;;;;;;;;;;-145.06;0.00;60892.56;6077097;22;19955;-92
2023/08/28 21:51:04;;;;;;;;;;;;;;;-145.06;0.00;60892.56;6043916;22;19907;-93
2023/08/28 21:53:43;;;;;;;;;;;;;;;-145.06;0.00;60892.56;6044520;22;19908;-94
2023/08/28 21:56:27;;;;;;;;;;;;;;;-145.06;0.00;60892.56;6043720;22;19907;-95
2023/08/28 21:59:16;;;;;;;;;;;;;;;-145.06;0.00;60892.56;6044275;22;19907;-94
2023/08/28 22:01:56;;;;;;;;;;;;;;;-145.06;0.00;60892.56;6044794;22;19990;-93
2023/08/28 22:04:39;;;;;;;;;;;;;;;-145.06;0.00;60892.56;6044311;22;19907;-93
2023/08/28 22:07:21;;;;;;;;;;;;;;;-145.06;0.00;60892.56;6043983;22;19907;-92
2023/08/28 22:10:00;;;;;;;;;;;;;;;-145.06;0.00;60892.56;6043931;22;19907;-93
2023/08/28 22:12:40;;;;;;;;;;;;;;;-145.06;0.00;60892.56;6043820;22;19911;-93
2023/08/28 22:15:31;;;;;;;;;;;;;;;-145.06;0.00;60892.56;6044352;22;19908;-92
2023/08/28 22:18:10;;;;;;;;;;;;;;;-145.06;0.00;60892.56;6044086;22;19908;-93
2023/08/28 22:20:52;;;;;;;;;;;;;;;-145.06;0.00;60892.56;6043611;22;19911;-93
2023/08/28 22:23:41;;;;;;;;;;;;;;;-145.06;0.00;60892.56;6044174;22;19907;-92
2023/08/28 22:26:22;;;;;;;;;;;;;;;-145.06;0.00;60892.56;6044546;22;19907;-94
2023/08/28 22:29:04;;;;;;;;;;;;;;;-145.06;0.00;60892.56;6044544;22;19907;-93
2023/08/28 22:31:53;;;;;;;;;;;;;;;-145.06;0.00;60892.56;6043497;22;19907;-93
2023/08/28 22:34:32;;;;;;;;;;;;;;;-145.06;0.00;60892.56;6043903;22;19907;-92
2023/08/28 22:37:12;;;;;;;;;;;;;;;-145.06;0.00;60892.56;6044244;22;19907;-93
2023/08/28 22:39:53;;;;;;;;;;;;;;;-145.06;0.00;60892.56;6043517;22;19907;-94
2023/08/28 22:42:35;;;;;;;;;;;;;;;-145.06;0.00;60892.56;6044763;22;19955;-93
2023/08/28 22:45:16;;;;;;;;;;;;;;;-145.06;0.00;60892.56;6043448;22;20230;-94
2023/08/28 22:47:56;;;;;;;;;;;;;;;-145.06;0.00;60892.56;6043284;22;19908;-93
2023/08/28 22:50:40;;;;;;;;;;;;;;;-145.06;0.00;60892.56;6044073;22;19908;-92
2023/08/28 22:53:21;;;;;;;;;;;;;;;-145.06;0.00;60892.56;6043758;22;19907;-94
2023/08/28 22:56:00;;;;;;;;;;;;;;;-145.06;0.00;60892.56;6044201;22;19907;-93
2023/08/28 22:58:42;;;;;;;;;;;;;;;-145.06;0.00;60892.56;6043443;22;19907;-93
2023/08/28 23:01:24;;;;;;;;;;;;;;;-145.06;0.00;60892.56;6043360;22;19911;-94
2023/08/28 23:04:06;;;;;;;;;;;;;;;-145.06;0.00;60892.56;6043655;22;19907;-94
2023/08/28 23:06:46;;;;;;;;;;;;;;;-145.06;0.00;60892.56;6043008;22;19923;-94
2023/08/28 23:09:27;;;;;;;;;;;;;;;-145.06;0.00;60892.56;6043760;22;19936;-94
2023/08/28 23:12:14;;;;;;;;;;;;;;;-145.06;0.00;60892.56;6043532;22;19955;-93
2023/08/28 23:14:57;;;;;;;;;;;;;;;-145.06;0.00;60892.56;6042802;22;19907;-94
2023/08/28 23:17:43;;;;;;;;;;;;;;;-145.06;0.00;60892.56;6043961;22;19907;-93
2023/08/28 23:20:40;;;;;;;;;;;;;;;-145.06;0.00;60892.56;6042926;22;19959;-93
2023/08/28 23:23:29;;;;;;;;;;;;;;;-145.06;0.00;60892.56;6043859;22;20424;-92
2023/08/28 23:26:13;;;;;;;;;;;;;;;-145.06;0.00;60892.56;6043335;22;20371;-94
2023/08/28 23:29:15;;;;;;;;;;;;;;;-145.06;0.00;60892.56;6042775;22;19907;-93
2023/08/28 23:32:00;;;;;;;;;;;;;;;-145.06;0.00;60892.56;6043349;22;19907;-93
2023/08/28 23:34:48;;;;;;;;;;;;;;;-145.06;0.00;60892.56;6043514;22;19912;-93
2023/08/28 23:37:37;;;;;;;;;;;;;;;-145.06;0.00;60892.56;6043829;22;19912;-93
2023/08/28 23:40:41;;;;;;;;;;;;;;;-145.06;0.00;60892.56;6042815;22;19915;-92
2023/08/28 23:43:27;;;;;;;;;;;;;;;-145.06;0.00;60892.56;6041946;22;19947;-93
2023/08/28 23:46:18;;;;;;;;;;;;;;;-145.06;0.00;60892.56;6043484;22;19907;-93
2023/08/28 23:49:10;;;;;;;;;;;;;;;;;;;;;
2023/08/28 23:51:59;;;;;;;;;;;;;;;;;;;;;
2023/08/28 23:54:38;;;;;;;;;;;;;;;-145.06;0.00;60892.56;6076422;22;19911;-92
2023/08/28 23:57:37;;;;;;;;;;;;;;;-145.06;0.00;60892.56;6044114;22;19908;-92
